createdAt,value
2022-10-28T00:01:19.188Z,99.90
2022-10-28T00:03:50.901Z,99.90
2022-10-28T00:06:32.001Z,99.90
2022-10-28T00:08:59.301Z,99.90
2022-10-28T00:11:31.960Z,99.90
2022-10-28T00:14:00.963Z,99.90
2022-10-28T00:16:31.285Z,99.90
2022-10-28T00:18:59.667Z,99.90
2022-10-28T00:21:29.267Z,99.90
2022-10-28T00:23:56.556Z,99.90
2022-10-28T00:26:31.563Z,99.90
2022-10-28T00:29:06.289Z,99.90
2022-10-28T00:31:34.346Z,99.90
2022-10-28T00:34:04.288Z,99.90
2022-10-28T00:36:36.912Z,99.90
2022-10-28T00:39:11.037Z,99.90
2022-10-28T00:41:39.885Z,99.90
2022-10-28T00:44:40.756Z,99.90
2022-10-28T00:47:32.940Z,99.90
2022-10-28T00:50:38.037Z,99.90
2022-10-28T00:53:28.163Z,99.90
2022-10-28T00:55:56.870Z,99.90
2022-10-28T00:58:27.437Z,99.90
2022-10-28T01:00:54.694Z,99.90
2022-10-28T01:03:21.968Z,99.90
2022-10-28T01:05:49.563Z,99.90
2022-10-28T01:08:17.046Z,99.90
2022-10-28T01:11:20.867Z,99.90
2022-10-28T01:14:01.516Z,99.90
2022-10-28T01:17:06.171Z,99.90
2022-10-28T01:20:12.838Z,99.90
2022-10-28T01:22:53.652Z,99.90
2022-10-28T01:25:48.845Z,99.90
2022-10-28T01:28:43.712Z,99.90
2022-10-28T01:31:42.328Z,99.90
2022-10-28T01:34:12.118Z,99.90
2022-10-28T01:36:51.462Z,99.90
2022-10-28T01:39:18.095Z,99.90
2022-10-28T01:41:57.235Z,99.90
2022-10-28T01:44:35.925Z,99.90
2022-10-28T01:47:08.683Z,99.90
2022-10-28T01:49:51.132Z,99.90
2022-10-28T01:52:23.394Z,99.90
2022-10-28T01:55:02.164Z,99.90
2022-10-28T01:57:31.672Z,99.90
2022-10-28T01:59:59.799Z,99.90
2022-10-28T02:02:26.676Z,99.90
2022-10-28T02:05:03.132Z,99.90
2022-10-28T02:07:29.808Z,99.90
2022-10-28T02:10:16.843Z,99.90
2022-10-28T02:12:47.937Z,99.90
2022-10-28T02:15:52.455Z,99.90
2022-10-28T02:18:45.731Z,99.90
2022-10-28T02:21:28.535Z,99.90
2022-10-28T02:24:21.089Z,99.90
2022-10-28T02:26:55.172Z,99.90
2022-10-28T02:29:37.724Z,99.90
2022-10-28T02:32:08.161Z,99.90
2022-10-28T02:34:40.257Z,99.90
2022-10-28T02:37:13.307Z,99.90
2022-10-28T02:39:44.384Z,99.90
2022-10-28T02:42:38.944Z,99.90
2022-10-28T02:45:16.350Z,99.90
2022-10-28T02:47:50.097Z,99.90
2022-10-28T02:50:20.984Z,99.90
2022-10-28T02:52:53.832Z,99.90
2022-10-28T02:55:24.039Z,99.90
2022-10-28T02:57:51.557Z,99.90
2022-10-28T03:00:22.431Z,99.90
2022-10-28T03:02:49.186Z,99.90
2022-10-28T03:05:16.406Z,99.90
2022-10-28T03:07:43.174Z,99.90
2022-10-28T03:10:10.564Z,99.90
2022-10-28T03:12:37.265Z,99.90
2022-10-28T03:15:04.448Z,99.90
2022-10-28T03:17:31.397Z,99.90
2022-10-28T03:19:58.152Z,99.90
2022-10-28T03:22:25.004Z,99.90
2022-10-28T03:24:51.866Z,99.90
2022-10-28T03:27:18.511Z,99.90
2022-10-28T03:29:46.095Z,99.90
2022-10-28T03:32:13.529Z,99.90
2022-10-28T03:34:40.413Z,99.90
2022-10-28T03:37:07.343Z,99.90
2022-10-28T03:39:34.068Z,99.90
2022-10-28T03:42:00.797Z,99.90
2022-10-28T03:44:27.596Z,99.90
2022-10-28T03:46:54.319Z,99.90
2022-10-28T03:49:20.980Z,99.90
2022-10-28T03:51:47.693Z,99.90
2022-10-28T03:54:14.489Z,99.90
2022-10-28T03:56:41.221Z,99.90
2022-10-28T03:59:12.447Z,99.90
2022-10-28T04:01:41.092Z,99.90
2022-10-28T04:04:07.949Z,99.90
2022-10-28T04:06:34.662Z,99.90
2022-10-28T04:09:01.390Z,99.90
2022-10-28T04:11:28.145Z,99.90
2022-10-28T04:13:54.907Z,99.90
2022-10-28T04:16:21.647Z,99.90
2022-10-28T04:18:48.454Z,99.90
2022-10-28T04:21:15.321Z,99.90
2022-10-28T04:23:41.916Z,99.90
2022-10-28T04:26:08.744Z,99.90
2022-10-28T04:28:35.491Z,99.90
2022-10-28T04:31:02.757Z,99.90
2022-10-28T04:33:29.616Z,99.90
2022-10-28T04:35:56.476Z,99.90
2022-10-28T04:40:55.452Z,99.90
2022-10-28T04:43:22.232Z,99.90
2022-10-28T04:45:48.931Z,99.90
2022-10-28T04:48:15.744Z,99.90
2022-10-28T04:50:42.516Z,99.90
2022-10-28T04:53:13.100Z,99.90
2022-10-28T04:55:39.938Z,99.90
2022-10-28T04:58:06.757Z,99.90
2022-10-28T05:00:33.674Z,99.90
2022-10-28T05:03:04.539Z,99.90
2022-10-28T05:05:31.435Z,99.90
2022-10-28T05:07:58.143Z,99.90
2022-10-28T05:10:25.255Z,99.90
2022-10-28T05:12:52.030Z,99.90
2022-10-28T05:15:19.052Z,99.90
2022-10-28T05:17:47.011Z,99.90
2022-10-28T05:20:16.006Z,99.90
2022-10-28T05:22:47.677Z,99.90
2022-10-28T05:25:14.646Z,99.90
2022-10-28T05:27:41.512Z,99.90
2022-10-28T05:30:08.685Z,99.90
2022-10-28T05:32:35.727Z,99.90
2022-10-28T05:35:02.614Z,99.90
2022-10-28T05:37:29.594Z,99.90
2022-10-28T05:39:56.562Z,99.90
2022-10-28T05:42:23.413Z,99.90
2022-10-28T05:44:50.083Z,99.90
2022-10-28T05:47:17.209Z,99.90
2022-10-28T05:49:44.001Z,99.90
2022-10-28T05:52:10.808Z,99.90
2022-10-28T05:54:37.467Z,99.90
2022-10-28T05:57:04.170Z,99.90
2022-10-28T05:59:30.848Z,99.90
2022-10-28T06:01:57.651Z,99.90
2022-10-28T06:04:24.469Z,99.90
2022-10-28T06:06:55.147Z,99.90
2022-10-28T06:09:21.948Z,99.90
2022-10-28T06:11:47.069Z,99.90
2022-10-28T06:14:13.792Z,99.90
2022-10-28T06:16:40.616Z,99.90
2022-10-28T06:19:07.355Z,99.90
2022-10-28T06:21:34.117Z,99.90
2022-10-28T06:24:00.947Z,99.90
2022-10-28T06:26:27.617Z,99.90
2022-10-28T06:28:54.345Z,99.90
2022-10-28T06:31:21.029Z,99.90
2022-10-28T06:33:47.777Z,99.90
2022-10-28T06:36:14.515Z,99.90
2022-10-28T06:38:42.002Z,99.90
2022-10-28T06:41:08.867Z,99.90
2022-10-28T06:43:35.563Z,99.90
2022-10-28T06:46:03.941Z,99.90
2022-10-28T06:48:32.880Z,99.90
2022-10-28T06:50:59.653Z,99.90
2022-10-28T06:53:26.435Z,99.90
2022-10-28T06:55:57.981Z,99.90
2022-10-28T06:58:26.125Z,99.90
2022-10-28T07:00:53.719Z,99.90
2022-10-28T07:03:21.010Z,99.90
2022-10-28T07:05:49.934Z,99.90
2022-10-28T07:08:17.129Z,99.90
2022-10-28T07:10:43.960Z,99.90
2022-10-28T07:13:10.641Z,99.90
2022-10-28T07:15:37.421Z,99.90
2022-10-28T07:18:04.146Z,99.90
2022-10-28T07:20:32.847Z,99.90
2022-10-28T07:23:01.368Z,99.90
2022-10-28T07:25:29.944Z,99.90
2022-10-28T07:27:58.405Z,99.90
2022-10-28T07:30:26.090Z,99.90
2022-10-28T07:32:53.343Z,99.90
2022-10-28T07:35:21.073Z,99.90
2022-10-28T07:37:47.836Z,99.90
2022-10-28T07:40:14.660Z,99.90
2022-10-28T07:42:41.402Z,99.90
2022-10-28T07:45:10.470Z,99.90
2022-10-28T07:47:37.246Z,99.90
2022-10-28T07:50:05.287Z,99.90
2022-10-28T07:52:34.154Z,99.90
2022-10-28T07:55:01.103Z,99.90
2022-10-28T07:57:27.878Z,99.90
2022-10-28T07:59:54.500Z,99.90
2022-10-28T08:02:24.517Z,99.90
2022-10-28T08:04:52.216Z,99.90
2022-10-28T08:07:20.166Z,99.90
2022-10-28T08:09:46.871Z,99.90
2022-10-28T08:12:14.699Z,99.90
2022-10-28T08:14:41.705Z,99.90
2022-10-28T08:17:08.744Z,99.90
2022-10-28T08:19:35.568Z,99.90
2022-10-28T08:22:02.924Z,99.90
2022-10-28T08:24:29.777Z,99.90
2022-10-28T08:26:56.577Z,99.90
2022-10-28T08:29:27.625Z,99.90
2022-10-28T08:31:57.830Z,99.90
2022-10-28T08:34:29.864Z,99.90
2022-10-28T08:36:58.121Z,99.90
2022-10-28T08:39:24.980Z,99.90
2022-10-28T08:42:16.128Z,99.90
2022-10-28T08:45:09.906Z,99.90
2022-10-28T08:47:46.109Z,99.90
2022-10-28T08:50:18.630Z,99.90
2022-10-28T08:53:07.829Z,99.90
2022-10-28T08:55:42.113Z,99.90
2022-10-28T08:58:20.382Z,99.90
2022-10-28T09:00:54.265Z,99.90
2022-10-28T09:03:39.009Z,99.90
2022-10-28T09:06:08.131Z,99.90
2022-10-28T09:08:42.069Z,99.90
2022-10-28T09:11:16.406Z,99.90
2022-10-28T09:13:49.070Z,99.90
2022-10-28T09:16:24.358Z,99.90
2022-10-28T09:18:55.601Z,99.90
2022-10-28T09:21:32.648Z,99.90
2022-10-28T09:24:01.740Z,99.90
2022-10-28T09:26:47.624Z,99.90
2022-10-28T09:29:35.300Z,99.90
2022-10-28T09:32:21.070Z,99.90
2022-10-28T09:35:14.412Z,99.90
2022-10-28T09:38:07.005Z,99.90
2022-10-28T09:40:36.501Z,99.90
2022-10-28T09:43:25.050Z,99.90
2022-10-28T09:45:57.590Z,99.90
2022-10-28T09:48:41.072Z,99.90
2022-10-28T09:51:24.216Z,98.00
2022-10-28T09:53:59.350Z,96.40
2022-10-28T09:56:27.909Z,95.20
2022-10-28T09:58:58.692Z,93.00
2022-10-28T10:01:26.232Z,92.10
2022-10-28T10:03:53.730Z,90.60
2022-10-28T10:06:32.834Z,90.00
2022-10-28T10:09:00.823Z,88.80
2022-10-28T10:11:31.299Z,89.80
2022-10-28T10:14:02.993Z,89.20
2022-10-28T10:16:33.057Z,89.50
2022-10-28T10:19:02.014Z,88.50
2022-10-28T10:21:41.951Z,88.10
2022-10-28T10:24:32.833Z,86.80
2022-10-28T10:27:10.659Z,88.30
2022-10-28T10:29:43.905Z,91.00
2022-10-28T10:32:23.003Z,91.00
2022-10-28T10:35:02.825Z,89.40
2022-10-28T10:37:33.508Z,89.40
2022-10-28T10:40:27.155Z,90.00
2022-10-28T10:43:10.019Z,89.90
2022-10-28T10:45:40.826Z,85.80
2022-10-28T10:48:15.875Z,84.80
2022-10-28T10:50:49.088Z,84.40
2022-10-28T10:53:23.304Z,83.80
2022-10-28T10:56:11.024Z,83.10
2022-10-28T10:58:41.296Z,81.70
2022-10-28T11:01:16.718Z,80.70
2022-10-28T11:03:54.023Z,80.30
2022-10-28T11:06:26.911Z,80.20
2022-10-28T11:09:34.004Z,78.50
2022-10-28T11:12:01.210Z,76.50
2022-10-28T11:14:30.335Z,76.80
2022-10-28T11:16:59.459Z,75.50
2022-10-28T11:19:30.630Z,78.30
2022-10-28T11:22:00.054Z,80.00
2022-10-28T11:24:47.900Z,80.90
2022-10-28T11:27:39.702Z,79.60
2022-10-28T11:30:13.409Z,79.20
2022-10-28T11:33:29.361Z,78.90
2022-10-28T11:36:18.635Z,75.20
2022-10-28T11:39:03.907Z,73.80
2022-10-28T11:41:34.067Z,74.50
2022-10-28T11:44:05.067Z,74.40
2022-10-28T11:46:44.406Z,75.80
2022-10-28T11:49:26.178Z,75.40
2022-10-28T11:52:03.946Z,74.50
2022-10-28T11:55:07.979Z,75.00
2022-10-28T11:58:08.722Z,75.70
2022-10-28T12:00:43.537Z,76.60
2022-10-28T12:03:28.988Z,77.10
2022-10-28T12:06:10.097Z,78.20
2022-10-28T12:08:39.811Z,78.60
2022-10-28T12:11:34.442Z,77.60
2022-10-28T12:14:28.455Z,78.50
2022-10-28T12:17:19.789Z,79.30
2022-10-28T12:20:02.644Z,80.30
2022-10-28T12:22:35.982Z,79.40
2022-10-28T12:25:13.176Z,78.20
2022-10-28T12:27:44.191Z,79.00
2022-10-28T12:30:21.090Z,77.90
2022-10-28T12:32:58.000Z,77.90
2022-10-28T12:35:41.139Z,78.00
2022-10-28T12:38:10.619Z,78.30
2022-10-28T12:40:51.731Z,78.10
2022-10-28T12:43:29.542Z,77.60
2022-10-28T12:45:56.747Z,77.80
2022-10-28T12:48:45.615Z,78.10
2022-10-28T12:51:21.380Z,78.40
2022-10-28T12:54:42.355Z,78.40
2022-10-28T12:57:14.516Z,77.70
2022-10-28T13:00:04.351Z,78.40
2022-10-28T13:02:37.789Z,78.30
2022-10-28T13:05:05.584Z,77.80
2022-10-28T13:07:39.070Z,77.20
2022-10-28T13:13:10.822Z,78.90
2022-10-28T13:15:55.954Z,80.30
2022-10-28T13:18:54.427Z,81.40
2022-10-28T13:21:29.953Z,80.90
2022-10-28T13:23:59.723Z,80.90
2022-10-28T13:26:30.956Z,81.80
2022-10-28T13:29:00.820Z,83.70
2022-10-28T13:31:42.454Z,84.30
2022-10-28T13:34:11.258Z,83.70
2022-10-28T13:36:42.719Z,80.20
2022-10-28T13:39:28.244Z,79.80
2022-10-28T13:42:13.373Z,79.00
2022-10-28T13:44:58.689Z,78.50
2022-10-28T13:47:35.789Z,77.90
2022-10-28T13:50:21.841Z,77.50
2022-10-28T13:53:41.535Z,77.70
2022-10-28T13:56:27.181Z,81.10
2022-10-28T13:59:02.893Z,83.30
2022-10-28T14:01:41.974Z,85.30
2022-10-28T14:04:22.563Z,86.70
2022-10-28T14:06:49.569Z,87.80
2022-10-28T14:09:22.842Z,88.70
2022-10-28T14:12:18.411Z,89.00
2022-10-28T14:15:01.975Z,87.30
2022-10-28T14:17:40.077Z,85.00
2022-10-28T14:20:34.272Z,82.80
2022-10-28T14:23:01.113Z,81.50
2022-10-28T14:25:43.746Z,81.30
2022-10-28T14:28:28.965Z,81.20
2022-10-28T14:31:08.056Z,81.90
2022-10-28T14:33:36.379Z,83.40
2022-10-28T14:36:18.734Z,86.40
2022-10-28T14:39:03.760Z,88.10
2022-10-28T14:41:50.833Z,90.20
2022-10-28T14:44:51.746Z,91.40
2022-10-28T14:47:24.302Z,92.50
2022-10-28T14:50:18.579Z,93.70
2022-10-28T14:52:48.043Z,94.60
2022-10-28T14:55:31.194Z,95.60
2022-10-28T14:58:22.598Z,96.40
2022-10-28T15:01:18.589Z,97.30
2022-10-28T15:03:48.638Z,98.30
2022-10-28T15:06:32.518Z,99.20
2022-10-28T15:09:25.505Z,99.80
2022-10-28T15:12:07.701Z,99.90
2022-10-28T15:14:40.072Z,99.90
2022-10-28T15:17:13.514Z,99.90
2022-10-28T15:19:41.119Z,99.90
2022-10-28T15:22:15.266Z,99.90
2022-10-28T15:24:46.207Z,99.90
2022-10-28T15:27:14.706Z,99.90
2022-10-28T15:29:42.713Z,99.90
2022-10-28T15:32:21.265Z,99.90
2022-10-28T15:34:48.893Z,99.90
2022-10-28T15:37:21.556Z,99.90
2022-10-28T15:39:55.498Z,99.90
2022-10-28T15:42:38.839Z,99.90
2022-10-28T15:45:06.410Z,99.90
2022-10-28T15:47:35.748Z,99.90
2022-10-28T15:50:28.414Z,99.90
2022-10-28T15:53:23.132Z,99.90
2022-10-28T15:56:17.335Z,99.90
2022-10-28T15:58:46.972Z,99.90
2022-10-28T16:01:40.563Z,99.90
2022-10-28T16:04:39.516Z,99.90
2022-10-28T16:07:09.654Z,99.90
2022-10-28T16:09:42.981Z,99.90
2022-10-28T16:12:19.790Z,99.90
2022-10-28T16:15:05.147Z,99.90
2022-10-28T16:17:36.298Z,99.90
2022-10-28T16:20:20.438Z,99.90
2022-10-28T16:22:47.390Z,99.90
2022-10-28T16:25:22.581Z,99.90
2022-10-28T16:27:49.867Z,99.90
2022-10-28T16:30:17.287Z,99.90
2022-10-28T16:32:47.395Z,99.90
2022-10-28T16:35:16.409Z,99.90
2022-10-28T16:37:44.844Z,99.90
2022-10-28T16:40:37.787Z,99.90
2022-10-28T16:43:01.409Z,99.90
2022-10-28T16:45:28.146Z,99.90
2022-10-28T16:47:55.210Z,99.90
2022-10-28T16:50:22.169Z,99.90
2022-10-28T16:52:48.756Z,99.90
2022-10-28T16:55:16.298Z,99.90
2022-10-28T16:57:43.017Z,99.90
2022-10-28T17:00:09.929Z,99.90
2022-10-28T17:02:36.762Z,99.90
2022-10-28T17:05:05.090Z,99.90
2022-10-28T17:07:31.935Z,99.90
2022-10-28T17:09:58.722Z,99.90
2022-10-28T17:12:27.329Z,99.90
2022-10-28T17:14:54.275Z,99.90
2022-10-28T17:17:21.186Z,99.90
2022-10-28T17:19:48.062Z,99.90
2022-10-28T17:22:15.063Z,99.90
2022-10-28T17:24:41.953Z,99.90
2022-10-28T17:27:08.766Z,99.90
2022-10-28T17:29:35.692Z,99.90
2022-10-28T17:32:02.692Z,99.90
2022-10-28T17:34:29.887Z,99.90
2022-10-28T17:36:56.779Z,99.90
2022-10-28T17:39:26.475Z,99.90
2022-10-28T17:41:53.920Z,99.90
2022-10-28T17:44:20.886Z,99.90
2022-10-28T17:46:51.536Z,99.90
2022-10-28T17:49:18.710Z,99.90
2022-10-28T17:51:45.655Z,99.90
2022-10-28T17:54:12.638Z,99.90
2022-10-28T17:56:42.178Z,99.90
2022-10-28T17:59:09.504Z,99.90
2022-10-28T18:01:36.672Z,99.90
2022-10-28T18:04:04.562Z,99.90
2022-10-28T18:06:31.701Z,99.90
2022-10-28T18:08:58.654Z,99.90
2022-10-28T18:11:26.608Z,99.90
2022-10-28T18:13:56.025Z,99.90
2022-10-28T18:16:27.538Z,99.90
2022-10-28T18:18:55.533Z,99.90
2022-10-28T18:21:24.519Z,99.90
2022-10-28T18:23:52.813Z,99.90
2022-10-28T18:26:20.079Z,99.90
2022-10-28T18:28:47.220Z,99.90
2022-10-28T18:31:19.353Z,99.90
2022-10-28T18:33:47.064Z,99.90
2022-10-28T18:36:16.603Z,99.90
2022-10-28T18:38:43.467Z,99.90
2022-10-28T18:41:18.676Z,99.90
2022-10-28T18:43:46.361Z,99.90
2022-10-28T18:46:13.728Z,99.90
2022-10-28T18:48:41.037Z,99.90
2022-10-28T18:51:10.813Z,99.90
2022-10-28T18:53:39.654Z,99.90
2022-10-28T18:56:09.798Z,99.90
2022-10-28T18:58:36.498Z,99.90
2022-10-28T19:01:04.129Z,99.90
2022-10-28T19:03:31.174Z,99.90
2022-10-28T19:06:07.106Z,99.90
2022-10-28T19:08:34.272Z,99.90
2022-10-28T19:11:01.982Z,99.90
2022-10-28T19:13:29.064Z,99.90
2022-10-28T19:15:55.797Z,99.90
2022-10-28T19:18:22.610Z,99.90
2022-10-28T19:20:51.598Z,99.90
2022-10-28T19:23:18.597Z,99.90
2022-10-28T19:25:55.399Z,99.90
2022-10-28T19:28:23.205Z,99.90
2022-10-28T19:30:50.417Z,99.90
2022-10-28T19:33:17.192Z,99.90
2022-10-28T19:35:43.855Z,99.90
2022-10-28T19:38:10.557Z,99.90
2022-10-28T19:40:37.200Z,99.90
2022-10-28T19:43:03.946Z,99.90
2022-10-28T19:45:30.757Z,99.90
2022-10-28T19:48:01.750Z,99.90
2022-10-28T19:50:28.823Z,99.90
2022-10-28T19:52:55.668Z,99.90
2022-10-28T19:55:37.547Z,99.90
2022-10-28T19:58:04.464Z,99.90
2022-10-28T20:00:31.234Z,99.90
2022-10-28T20:02:57.860Z,99.90
2022-10-28T20:05:24.802Z,99.90
2022-10-28T20:07:52.667Z,99.90
2022-10-28T20:10:19.659Z,99.90
2022-10-28T20:12:46.265Z,99.90
2022-10-28T20:15:13.078Z,99.90
2022-10-28T20:17:39.786Z,99.90
2022-10-28T20:20:06.755Z,99.90
2022-10-28T20:22:34.882Z,99.90
2022-10-28T20:25:08.451Z,99.90
2022-10-28T20:27:35.430Z,99.90
2022-10-28T20:30:02.200Z,99.90
2022-10-28T20:32:28.946Z,99.90
2022-10-28T20:34:55.563Z,99.90
2022-10-28T20:37:22.341Z,99.90
2022-10-28T20:39:49.755Z,99.90
2022-10-28T20:42:18.066Z,99.90
2022-10-28T20:44:46.142Z,99.90
2022-10-28T20:47:12.765Z,99.90
2022-10-28T20:49:42.587Z,99.90
2022-10-28T20:52:09.430Z,99.90
2022-10-28T20:54:36.317Z,99.90
2022-10-28T20:57:03.049Z,99.90
2022-10-28T20:59:29.844Z,99.90
2022-10-28T21:01:57.146Z,99.90
2022-10-28T21:04:24.069Z,99.90
2022-10-28T21:06:50.884Z,99.90
2022-10-28T21:09:17.707Z,99.90
2022-10-28T21:11:44.632Z,99.90
2022-10-28T21:14:11.376Z,99.90
2022-10-28T21:16:38.146Z,99.90
2022-10-28T21:19:04.899Z,99.90
2022-10-28T21:21:31.630Z,99.90
2022-10-28T21:23:58.394Z,99.90
2022-10-28T21:26:27.114Z,99.90
2022-10-28T21:28:53.918Z,99.90
2022-10-28T21:31:21.288Z,99.90
2022-10-28T21:36:15.909Z,99.90
2022-10-28T21:38:43.191Z,99.90
2022-10-28T21:41:20.604Z,99.90
2022-10-28T21:43:48.302Z,99.90
2022-10-28T21:46:18.839Z,99.90
2022-10-28T21:48:45.740Z,99.90
2022-10-28T21:51:15.151Z,99.90
2022-10-28T21:53:43.995Z,99.90
2022-10-28T21:56:19.583Z,99.90
2022-10-28T21:58:48.394Z,99.90
2022-10-28T22:01:21.116Z,99.90
2022-10-28T22:03:48.179Z,99.90
2022-10-28T22:06:15.214Z,99.90
2022-10-28T22:08:42.211Z,99.90
2022-10-28T22:11:20.017Z,99.90
2022-10-28T22:13:48.689Z,99.90
2022-10-28T22:16:17.664Z,99.90
2022-10-28T22:18:45.439Z,99.90
2022-10-28T22:21:18.168Z,99.90
2022-10-28T22:23:45.379Z,99.90
2022-10-28T22:26:16.806Z,99.90
2022-10-28T22:28:43.713Z,99.90
2022-10-28T22:31:13.925Z,99.90
2022-10-28T22:33:41.160Z,99.90
2022-10-28T22:36:10.825Z,99.90
2022-10-28T22:38:38.073Z,99.90
2022-10-28T22:41:10.814Z,99.90
2022-10-28T22:43:38.699Z,99.90
2022-10-28T22:46:05.981Z,99.90
2022-10-28T22:48:33.146Z,99.90
2022-10-28T22:51:00.381Z,99.90
2022-10-28T22:53:27.234Z,99.90
2022-10-28T22:55:54.690Z,99.90
2022-10-28T22:58:22.478Z,99.90
2022-10-28T23:00:49.920Z,99.90
2022-10-28T23:03:17.150Z,99.90
2022-10-28T23:05:44.084Z,99.90
2022-10-28T23:08:17.238Z,99.90
2022-10-28T23:10:44.071Z,99.90
2022-10-28T23:13:11.802Z,99.90
2022-10-28T23:15:38.631Z,99.90
2022-10-28T23:18:05.360Z,99.90
2022-10-28T23:20:32.130Z,99.90
2022-10-28T23:22:59.038Z,99.90
2022-10-28T23:25:25.677Z,99.90
2022-10-28T23:27:52.688Z,99.90
2022-10-28T23:30:19.628Z,99.90
2022-10-28T23:32:46.237Z,99.90
2022-10-28T23:35:13.141Z,99.90
2022-10-28T23:37:39.906Z,99.90
2022-10-28T23:40:06.954Z,99.90
2022-10-28T23:42:33.896Z,99.90
2022-10-28T23:45:00.679Z,99.90
2022-10-28T23:47:27.462Z,99.90
2022-10-28T23:49:54.248Z,99.90
2022-10-28T23:52:20.849Z,99.90
2022-10-28T23:54:47.700Z,99.90
2022-10-28T23:57:14.619Z,99.90
2022-10-28T23:59:41.347Z,99.90
